createdAt,value
2022-10-13T00:00:39.926Z,19.67
2022-10-13T00:01:27.428Z,18.17
2022-10-13T00:02:14.242Z,17.87
2022-10-13T00:03:02.500Z,18.62
2022-10-13T00:03:49.703Z,19.40
2022-10-13T00:04:36.579Z,17.70
2022-10-13T00:05:23.392Z,21.35
2022-10-13T00:06:11.842Z,18.98
2022-10-13T00:06:58.680Z,18.70
2022-10-13T00:07:45.461Z,17.90
2022-10-13T00:08:32.726Z,19.25
2022-10-13T00:09:19.561Z,21.12
2022-10-13T00:10:06.763Z,17.15
2022-10-13T00:10:53.611Z,17.52
2022-10-13T00:11:40.430Z,18.83
2022-10-13T00:12:27.253Z,18.83
2022-10-13T00:13:14.973Z,20.30
2022-10-13T00:14:03.151Z,19.25
2022-10-13T00:14:50.106Z,18.33
2022-10-13T00:15:41.822Z,22.80
2022-10-13T00:16:29.331Z,17.87
2022-10-13T00:17:16.111Z,17.08
2022-10-13T00:18:02.942Z,18.33
2022-10-13T00:18:50.283Z,20.92
2022-10-13T00:19:37.033Z,20.60
2022-10-13T00:20:23.822Z,18.98
2022-10-13T00:21:16.118Z,18.52
2022-10-13T00:22:02.982Z,19.83
2022-10-13T00:22:49.781Z,18.27
2022-10-13T00:23:36.992Z,17.77
2022-10-13T00:24:23.761Z,18.95
2022-10-13T00:25:10.501Z,18.05
2022-10-13T00:25:57.385Z,20.35
2022-10-13T00:26:44.203Z,17.42
2022-10-13T00:27:31.002Z,18.25
2022-10-13T00:28:19.586Z,18.98
2022-10-13T00:29:06.412Z,18.65
2022-10-13T00:29:53.172Z,18.77
2022-10-13T00:30:40.584Z,16.85
2022-10-13T00:31:29.431Z,18.23
2022-10-13T00:32:16.727Z,19.75
2022-10-13T00:33:03.911Z,16.90
2022-10-13T00:33:51.042Z,18.60
2022-10-13T00:34:38.310Z,18.45
2022-10-13T00:35:25.071Z,20.52
2022-10-13T00:36:12.223Z,17.65
2022-10-13T00:36:59.080Z,18.55
2022-10-13T00:37:45.821Z,18.58
2022-10-13T00:38:32.693Z,16.87
2022-10-13T00:39:19.502Z,16.58
2022-10-13T00:40:07.725Z,20.33
2022-10-13T00:40:56.261Z,16.48
2022-10-13T00:41:43.071Z,18.65
2022-10-13T00:42:29.860Z,17.42
2022-10-13T00:43:18.701Z,17.40
2022-10-13T00:44:27.211Z,16.42
2022-10-13T00:45:43.052Z,18.58
2022-10-13T00:46:37.187Z,15.70
2022-10-13T00:47:25.034Z,16.98
2022-10-13T00:48:12.181Z,18.55
2022-10-13T00:49:08.563Z,18.95
2022-10-13T00:49:55.870Z,15.50
2022-10-13T00:50:43.231Z,20.37
2022-10-13T00:51:33.401Z,17.33
2022-10-13T00:52:21.249Z,15.68
2022-10-13T00:53:09.893Z,17.27
2022-10-13T00:53:57.201Z,17.87
2022-10-13T00:54:44.811Z,16.83
2022-10-13T00:55:34.622Z,18.77
2022-10-13T00:56:21.890Z,17.55
2022-10-13T00:57:09.701Z,19.23
2022-10-13T00:58:02.761Z,19.02
2022-10-13T00:58:52.342Z,18.83
2022-10-13T00:59:39.542Z,15.20
2022-10-13T01:00:26.764Z,17.15
2022-10-13T01:01:14.160Z,17.23
2022-10-13T01:02:01.254Z,18.37
2022-10-13T01:02:48.015Z,19.55
2022-10-13T01:03:35.231Z,15.60
2022-10-13T01:04:24.261Z,17.17
2022-10-13T01:05:11.022Z,18.20
2022-10-13T01:06:00.842Z,16.92
2022-10-13T01:06:47.682Z,17.15
2022-10-13T01:07:35.759Z,17.90
2022-10-13T01:08:23.522Z,17.23
2022-10-13T01:09:10.221Z,17.48
2022-10-13T01:09:57.343Z,17.10
2022-10-13T01:11:05.251Z,16.23
2022-10-13T01:11:55.592Z,17.17
2022-10-13T01:12:54.383Z,16.45
2022-10-13T01:13:48.241Z,15.85
2022-10-13T01:14:42.135Z,16.77
2022-10-13T01:15:34.762Z,17.83
2022-10-13T01:16:30.771Z,17.42
2022-10-13T01:17:29.073Z,19.80
2022-10-13T01:18:23.189Z,16.95
2022-10-13T01:19:43.982Z,16.00
2022-10-13T01:20:48.665Z,16.85
2022-10-13T01:21:42.362Z,16.05
2022-10-13T01:23:00.750Z,16.23
2022-10-13T01:24:04.341Z,15.23
2022-10-13T01:25:04.838Z,19.05
2022-10-13T01:26:10.401Z,21.37
2022-10-13T01:27:00.136Z,16.33
2022-10-13T01:27:46.952Z,18.40
2022-10-13T01:29:10.899Z,17.50
2022-10-13T01:30:17.284Z,16.23
2022-10-13T01:31:21.249Z,17.05
2022-10-13T01:32:15.327Z,17.37
2022-10-13T01:33:27.131Z,20.12
2022-10-13T01:34:39.789Z,16.20
2022-10-13T01:35:43.822Z,16.87
2022-10-13T01:36:40.241Z,16.40
2022-10-13T01:37:32.540Z,15.15
2022-10-13T01:38:37.931Z,16.20
2022-10-13T01:39:36.211Z,16.58
2022-10-13T01:40:29.702Z,15.15
2022-10-13T01:41:35.843Z,17.62
2022-10-13T01:42:26.230Z,16.85
2022-10-13T01:43:16.020Z,16.10
2022-10-13T01:44:18.245Z,20.08
2022-10-13T01:45:05.359Z,15.25
2022-10-13T01:46:12.871Z,15.63
2022-10-13T01:47:01.081Z,17.70
2022-10-13T01:47:47.972Z,15.13
2022-10-13T01:48:36.701Z,15.77
2022-10-13T01:49:27.030Z,17.90
2022-10-13T01:50:15.511Z,15.52
2022-10-13T01:51:02.718Z,16.55
2022-10-13T01:51:49.970Z,14.98
2022-10-13T01:52:38.802Z,17.50
2022-10-13T01:53:26.439Z,17.02
2022-10-13T01:54:13.242Z,14.30
2022-10-13T01:55:08.920Z,15.98
2022-10-13T01:56:00.462Z,24.10
2022-10-13T01:56:57.193Z,14.63
2022-10-13T01:57:45.453Z,18.27
2022-10-13T01:58:34.750Z,15.50
2022-10-13T01:59:23.310Z,16.73
2022-10-13T02:00:13.409Z,15.27
2022-10-13T02:01:15.071Z,17.83
2022-10-13T02:02:21.790Z,16.92
2022-10-13T02:03:23.961Z,17.45
2022-10-13T02:04:24.063Z,20.00
2022-10-13T02:05:10.901Z,16.58
2022-10-13T02:06:15.881Z,16.60
2022-10-13T02:07:15.381Z,15.35
2022-10-13T02:08:14.765Z,14.63
2022-10-13T02:09:19.441Z,16.67
2022-10-13T02:10:16.643Z,14.70
2022-10-13T02:11:16.691Z,16.98
2022-10-13T02:12:12.286Z,15.88
2022-10-13T02:13:01.641Z,14.75
2022-10-13T02:13:51.122Z,16.10
2022-10-13T02:14:40.671Z,15.70
2022-10-13T02:15:35.788Z,17.52
2022-10-13T02:16:23.901Z,16.90
2022-10-13T02:17:11.329Z,15.82
2022-10-13T02:17:58.722Z,18.50
2022-10-13T02:18:45.662Z,15.82
2022-10-13T02:19:37.209Z,17.02
2022-10-13T02:20:24.082Z,15.85
2022-10-13T02:21:11.001Z,16.25
2022-10-13T02:21:58.671Z,20.15
2022-10-13T02:22:47.380Z,19.77
2022-10-13T02:23:34.321Z,17.45
2022-10-13T02:24:21.102Z,16.87
2022-10-13T02:25:08.832Z,16.52
2022-10-13T02:25:56.929Z,16.27
2022-10-13T02:26:44.431Z,19.05
2022-10-13T02:27:31.206Z,16.15
2022-10-13T02:28:19.071Z,17.50
2022-10-13T02:29:11.081Z,18.00
2022-10-13T02:29:58.411Z,14.85
2022-10-13T02:30:46.022Z,16.95
2022-10-13T02:31:32.780Z,19.30
2022-10-13T02:32:20.470Z,17.05
2022-10-13T02:33:08.129Z,19.20
2022-10-13T02:33:54.881Z,22.17
2022-10-13T02:34:41.696Z,18.27
2022-10-13T02:35:30.014Z,16.12
2022-10-13T02:36:16.771Z,18.65
2022-10-13T02:37:03.562Z,16.27
2022-10-13T02:37:50.368Z,16.45
2022-10-13T02:38:37.182Z,20.12
2022-10-13T02:39:23.933Z,16.40
2022-10-13T02:40:11.514Z,19.05
2022-10-13T02:40:58.580Z,19.50
2022-10-13T02:41:45.350Z,17.17
2022-10-13T02:42:32.170Z,16.30
2022-10-13T02:43:18.931Z,19.83
2022-10-13T02:44:06.441Z,14.93
2022-10-13T02:44:53.330Z,18.65
2022-10-13T02:45:40.171Z,17.20
2022-10-13T02:46:27.021Z,15.65
2022-10-13T02:47:13.812Z,16.62
2022-10-13T02:48:00.692Z,19.02
2022-10-13T02:48:47.470Z,18.23
2022-10-13T02:49:34.240Z,16.77
2022-10-13T02:50:21.081Z,17.05
2022-10-13T02:51:07.983Z,21.08
2022-10-13T02:51:54.841Z,17.70
2022-10-13T02:52:41.651Z,20.27
2022-10-13T02:53:28.423Z,15.65
2022-10-13T02:54:15.252Z,17.23
2022-10-13T02:55:02.030Z,21.75
2022-10-13T02:55:48.881Z,16.67
2022-10-13T02:56:35.832Z,15.63
2022-10-13T02:57:22.800Z,19.62
2022-10-13T02:58:09.612Z,21.30
2022-10-13T02:58:56.453Z,17.52
2022-10-13T02:59:43.268Z,21.17
2022-10-13T03:00:30.095Z,15.68
2022-10-13T03:01:17.053Z,20.10
2022-10-13T03:02:04.002Z,19.27
2022-10-13T03:02:50.891Z,16.45
2022-10-13T03:03:37.921Z,17.50
2022-10-13T03:04:24.781Z,17.85
2022-10-13T03:05:11.891Z,18.12
2022-10-13T03:05:59.180Z,17.50
2022-10-13T03:06:45.981Z,17.98
2022-10-13T03:07:32.781Z,19.33
2022-10-13T03:08:19.523Z,25.33
2022-10-13T03:09:06.252Z,17.95
2022-10-13T03:09:53.161Z,18.92
2022-10-13T03:10:39.989Z,18.85
2022-10-13T03:11:26.941Z,17.23
2022-10-13T03:12:13.711Z,14.85
2022-10-13T03:13:01.230Z,16.87
2022-10-13T03:13:47.962Z,15.95
2022-10-13T03:14:34.741Z,16.58
2022-10-13T03:15:21.642Z,16.37
2022-10-13T03:16:08.579Z,18.42
2022-10-13T03:16:55.361Z,16.23
2022-10-13T03:17:42.140Z,17.48
2022-10-13T03:18:29.121Z,15.40
2022-10-13T03:19:15.912Z,18.58
2022-10-13T03:20:02.721Z,17.45
2022-10-13T03:21:03.612Z,17.52
2022-10-13T03:22:37.201Z,20.33
2022-10-13T03:23:24.061Z,19.27
2022-10-13T03:24:10.882Z,20.83
2022-10-13T03:24:57.684Z,19.10
2022-10-13T03:25:44.469Z,16.50
2022-10-13T03:26:31.871Z,16.60
2022-10-13T03:27:18.682Z,17.85
2022-10-13T03:28:05.473Z,19.12
2022-10-13T03:28:52.880Z,21.52
2022-10-13T03:29:40.491Z,18.30
2022-10-13T03:30:27.591Z,18.35
2022-10-13T03:31:14.391Z,18.95
2022-10-13T03:32:01.141Z,18.85
2022-10-13T03:32:48.016Z,17.98
2022-10-13T03:33:35.086Z,18.35
2022-10-13T03:34:21.893Z,18.48
2022-10-13T03:35:09.069Z,18.73
2022-10-13T03:35:59.061Z,17.65
2022-10-13T03:36:46.074Z,19.70
2022-10-13T03:37:33.032Z,17.80
2022-10-13T03:38:19.863Z,17.67
2022-10-13T03:39:06.903Z,21.02
2022-10-13T03:39:53.762Z,19.73
2022-10-13T03:40:40.562Z,18.08
2022-10-13T03:41:27.281Z,18.17
2022-10-13T03:42:14.071Z,19.87
2022-10-13T03:43:00.822Z,21.65
2022-10-13T03:43:47.652Z,24.50
2022-10-13T03:44:34.451Z,19.33
2022-10-13T03:45:21.247Z,24.55
2022-10-13T03:46:09.181Z,29.55
2022-10-13T03:46:55.922Z,21.73
2022-10-13T03:47:42.758Z,20.67
2022-10-13T03:48:29.862Z,21.80
2022-10-13T03:49:17.615Z,25.62
2022-10-13T03:50:05.950Z,21.50
2022-10-13T03:50:53.224Z,21.65
2022-10-13T03:51:40.351Z,23.12
2022-10-13T03:52:27.148Z,23.87
2022-10-13T03:53:13.956Z,20.73
2022-10-13T03:54:00.753Z,20.73
2022-10-13T03:54:47.760Z,21.77
2022-10-13T03:55:34.522Z,23.95
2022-10-13T03:56:26.882Z,21.95
2022-10-13T03:57:13.840Z,23.60
2022-10-13T03:58:00.585Z,21.33
2022-10-13T03:58:47.463Z,21.23
2022-10-13T03:59:36.723Z,21.92
2022-10-13T04:00:24.113Z,23.80
2022-10-13T04:01:11.551Z,24.25
2022-10-13T04:01:58.291Z,21.65
2022-10-13T04:02:45.091Z,21.12
2022-10-13T04:03:32.592Z,22.85
2022-10-13T04:04:19.312Z,20.80
2022-10-13T04:05:06.412Z,24.50
2022-10-13T04:05:53.173Z,21.37
2022-10-13T04:06:39.981Z,22.17
2022-10-13T04:07:26.833Z,24.58
2022-10-13T04:08:14.551Z,27.60
2022-10-13T04:09:01.339Z,21.45
2022-10-13T04:09:48.285Z,24.50
2022-10-13T04:10:35.461Z,23.42
2022-10-13T04:11:22.650Z,20.20
2022-10-13T04:12:09.401Z,22.95
2022-10-13T04:12:56.180Z,20.05
2022-10-13T04:13:43.620Z,24.10
2022-10-13T04:14:30.450Z,22.20
2022-10-13T04:15:17.381Z,20.45
2022-10-13T04:16:05.853Z,20.30
2022-10-13T04:16:52.874Z,22.08
2022-10-13T04:17:39.604Z,21.48
2022-10-13T04:18:26.559Z,19.73
2022-10-13T04:19:15.062Z,20.70
2022-10-13T04:20:01.951Z,23.95
2022-10-13T04:20:48.812Z,19.60
2022-10-13T04:21:35.955Z,21.30
2022-10-13T04:22:23.103Z,22.20
2022-10-13T04:23:10.091Z,18.87
2022-10-13T04:23:58.841Z,22.95
2022-10-13T04:24:45.640Z,21.10
2022-10-13T04:25:36.122Z,22.98
2022-10-13T04:26:24.073Z,19.33
2022-10-13T04:27:10.852Z,20.62
2022-10-13T04:27:57.785Z,22.95
2022-10-13T04:28:47.392Z,19.60
2022-10-13T04:29:34.332Z,20.15
2022-10-13T04:30:21.172Z,22.20
2022-10-13T04:31:08.017Z,21.92
2022-10-13T04:31:54.861Z,20.02
2022-10-13T04:32:41.663Z,19.50
2022-10-13T04:33:29.061Z,27.77
2022-10-13T04:34:16.231Z,21.23
2022-10-13T04:35:03.245Z,21.42
2022-10-13T04:35:50.421Z,22.75
2022-10-13T04:36:37.231Z,21.45
2022-10-13T04:37:24.933Z,20.08
2022-10-13T04:38:11.784Z,22.05
2022-10-13T04:38:58.622Z,19.10
2022-10-13T04:39:45.401Z,21.12
2022-10-13T04:40:32.261Z,19.75
2022-10-13T04:41:19.641Z,21.45
2022-10-13T04:42:06.491Z,21.95
2022-10-13T04:42:53.301Z,23.00
2022-10-13T04:43:40.331Z,20.40
2022-10-13T04:44:27.190Z,22.20
2022-10-13T04:45:14.091Z,19.65
2022-10-13T04:46:04.972Z,19.80
2022-10-13T04:46:51.782Z,23.95
2022-10-13T04:47:39.891Z,26.55
2022-10-13T04:48:26.673Z,20.92
2022-10-13T04:49:13.537Z,22.27
2022-10-13T04:50:00.262Z,19.55
2022-10-13T04:50:47.112Z,22.20
2022-10-13T04:51:33.905Z,25.50
2022-10-13T04:52:21.126Z,20.37
2022-10-13T04:53:08.102Z,22.85
2022-10-13T04:53:58.957Z,23.45
2022-10-13T04:54:45.736Z,19.98
2022-10-13T04:55:35.783Z,19.02
2022-10-13T04:56:22.891Z,19.87
2022-10-13T04:57:09.642Z,21.52
2022-10-13T04:57:56.532Z,17.37
2022-10-13T04:58:44.503Z,20.08
2022-10-13T04:59:31.311Z,22.23
2022-10-13T05:00:18.422Z,18.70
2022-10-13T05:01:07.109Z,19.35
2022-10-13T05:01:53.923Z,17.92
2022-10-13T05:02:40.744Z,16.95
2022-10-13T05:03:27.593Z,21.10
2022-10-13T05:04:14.400Z,18.45
2022-10-13T05:05:01.192Z,17.55
2022-10-13T05:05:48.069Z,21.50
2022-10-13T05:06:48.604Z,20.90
2022-10-13T05:07:44.183Z,18.20
2022-10-13T05:08:31.030Z,20.08
2022-10-13T05:09:17.852Z,17.08
2022-10-13T05:10:05.060Z,17.02
2022-10-13T05:11:00.382Z,20.70
2022-10-13T05:11:47.213Z,17.12
2022-10-13T05:12:34.012Z,17.95
2022-10-13T05:13:21.038Z,19.98
2022-10-13T05:14:08.242Z,16.37
2022-10-13T05:14:55.130Z,23.12
2022-10-13T05:15:44.042Z,20.05
2022-10-13T05:16:31.383Z,19.05
2022-10-13T05:17:18.312Z,19.55
2022-10-13T05:18:05.101Z,21.98
2022-10-13T05:18:54.318Z,20.33
2022-10-13T05:19:41.421Z,21.33
2022-10-13T05:20:28.322Z,18.65
2022-10-13T05:21:20.152Z,20.73
2022-10-13T05:22:06.945Z,17.40
2022-10-13T05:22:53.731Z,18.62
2022-10-13T05:23:40.725Z,18.00
2022-10-13T05:24:39.082Z,17.10
2022-10-13T05:25:29.189Z,20.98
2022-10-13T05:26:18.693Z,20.12
2022-10-13T05:27:13.107Z,16.62
2022-10-13T05:27:59.832Z,19.15
2022-10-13T05:28:46.690Z,19.70
2022-10-13T05:29:33.562Z,16.10
2022-10-13T05:30:20.442Z,19.70
2022-10-13T05:31:15.376Z,17.42
2022-10-13T05:32:02.152Z,17.12
2022-10-13T05:32:52.984Z,16.02
2022-10-13T05:33:41.161Z,18.27
2022-10-13T05:34:28.051Z,16.83
2022-10-13T05:35:15.010Z,19.60
2022-10-13T05:36:10.410Z,17.02
2022-10-13T05:36:57.231Z,16.90
2022-10-13T05:37:44.051Z,18.77
2022-10-13T05:38:30.864Z,17.73
2022-10-13T05:39:17.784Z,19.00
2022-10-13T05:40:06.071Z,16.90
2022-10-13T05:40:52.920Z,17.75
2022-10-13T05:41:39.748Z,14.90
2022-10-13T05:42:29.217Z,16.58
2022-10-13T05:43:16.092Z,17.92
2022-10-13T05:44:05.331Z,16.77
2022-10-13T05:44:52.257Z,16.50
2022-10-13T05:45:39.232Z,15.65
2022-10-13T05:46:26.472Z,17.52
2022-10-13T05:47:13.462Z,16.98
2022-10-13T05:48:00.337Z,17.08
2022-10-13T05:48:47.738Z,17.55
2022-10-13T05:49:36.694Z,16.80
2022-10-13T05:50:23.645Z,16.73
2022-10-13T05:51:17.352Z,15.45
2022-10-13T05:52:08.726Z,19.08
2022-10-13T05:52:57.186Z,19.40
2022-10-13T05:53:50.352Z,19.52
2022-10-13T05:54:54.670Z,16.17
2022-10-13T05:55:41.732Z,16.98
2022-10-13T05:56:32.509Z,16.17
2022-10-13T05:57:24.503Z,17.70
2022-10-13T05:58:11.472Z,15.88
2022-10-13T05:59:01.935Z,17.52
2022-10-13T06:00:55.572Z,17.85
2022-10-13T06:01:44.702Z,19.75
2022-10-13T06:02:38.673Z,15.85
2022-10-13T06:03:25.482Z,16.45
2022-10-13T06:04:34.810Z,16.25
2022-10-13T06:05:23.734Z,15.43
2022-10-13T06:06:10.462Z,23.08
2022-10-13T06:06:57.144Z,16.87
2022-10-13T06:07:44.912Z,16.25
2022-10-13T06:08:31.672Z,15.68
2022-10-13T06:09:20.138Z,19.87
2022-10-13T06:10:08.417Z,20.52
2022-10-13T06:10:55.311Z,18.48
2022-10-13T06:11:42.182Z,15.05
2022-10-13T06:12:29.124Z,17.52
2022-10-13T06:13:15.994Z,19.42
2022-10-13T06:14:02.713Z,17.37
2022-10-13T06:14:49.440Z,19.23
2022-10-13T06:15:36.124Z,19.45
2022-10-13T06:16:22.801Z,16.58
2022-10-13T06:17:09.583Z,16.98
2022-10-13T06:17:56.382Z,22.85
2022-10-13T06:18:43.086Z,21.08
2022-10-13T06:19:29.760Z,21.25
2022-10-13T06:20:16.973Z,19.15
2022-10-13T06:21:03.811Z,17.37
2022-10-13T06:21:50.520Z,16.23
2022-10-13T06:22:38.423Z,16.02
2022-10-13T06:23:25.251Z,20.30
2022-10-13T06:24:12.004Z,16.25
2022-10-13T06:24:58.842Z,16.98
2022-10-13T06:25:53.132Z,17.75
2022-10-13T06:26:39.842Z,16.23
2022-10-13T06:27:26.751Z,16.55
2022-10-13T06:28:13.457Z,17.27
2022-10-13T06:29:00.413Z,17.42
2022-10-13T06:29:47.564Z,17.20
2022-10-13T06:30:34.282Z,17.25
2022-10-13T06:31:20.972Z,15.63
2022-10-13T06:32:07.770Z,17.40
2022-10-13T06:32:55.990Z,17.87
2022-10-13T06:33:42.692Z,17.70
2022-10-13T06:34:29.632Z,18.12
2022-10-13T06:35:16.412Z,17.67
2022-10-13T06:36:04.493Z,16.25
2022-10-13T06:36:51.721Z,19.75
2022-10-13T06:37:39.595Z,16.75
2022-10-13T06:38:26.694Z,17.42
2022-10-13T06:39:13.552Z,19.92
2022-10-13T06:40:00.570Z,18.08
2022-10-13T06:40:47.521Z,16.52
2022-10-13T06:41:34.274Z,16.33
2022-10-13T06:42:21.748Z,15.45
2022-10-13T06:43:09.631Z,16.35
2022-10-13T06:43:56.415Z,16.58
2022-10-13T06:44:43.141Z,14.07
2022-10-13T06:45:30.000Z,17.98
2022-10-13T06:46:16.746Z,14.35
2022-10-13T06:47:04.620Z,14.40
2022-10-13T06:47:54.302Z,16.23
2022-10-13T06:48:41.163Z,17.90
2022-10-13T06:49:28.442Z,15.43
2022-10-13T06:50:15.372Z,14.20
2022-10-13T06:51:04.104Z,16.40
2022-10-13T06:51:51.281Z,15.00
2022-10-13T06:52:38.697Z,17.02
2022-10-13T06:53:25.522Z,13.45
2022-10-13T06:54:12.455Z,15.15
2022-10-13T06:54:59.342Z,13.25
2022-10-13T06:55:51.550Z,12.85
2022-10-13T06:56:41.164Z,17.23
2022-10-13T06:57:29.989Z,16.40
2022-10-13T06:58:17.053Z,13.88
2022-10-13T06:59:04.001Z,14.05
2022-10-13T06:59:53.056Z,15.13
2022-10-13T07:00:41.088Z,18.87
2022-10-13T07:01:28.185Z,14.43
2022-10-13T07:02:14.971Z,14.55
2022-10-13T07:03:01.709Z,15.80
2022-10-13T07:03:49.780Z,17.55
2022-10-13T07:04:36.716Z,15.68
2022-10-13T07:05:25.521Z,14.18
2022-10-13T07:06:12.662Z,14.13
2022-10-13T07:06:59.781Z,14.27
2022-10-13T07:07:46.781Z,13.52
2022-10-13T07:08:34.466Z,14.30
2022-10-13T07:09:21.397Z,13.20
2022-10-13T07:10:08.682Z,17.65
2022-10-13T07:10:55.671Z,16.77
2022-10-13T07:11:45.652Z,15.02
2022-10-13T07:12:32.738Z,15.13
2022-10-13T07:13:19.729Z,13.07
2022-10-13T07:14:06.589Z,15.02
2022-10-13T07:14:53.483Z,17.25
2022-10-13T07:15:41.253Z,17.60
2022-10-13T07:16:28.169Z,12.25
2022-10-13T07:17:15.232Z,17.25
2022-10-13T07:18:02.072Z,16.33
2022-10-13T07:18:49.407Z,13.32
2022-10-13T07:19:36.412Z,15.48
2022-10-13T07:20:24.898Z,19.08
2022-10-13T07:21:12.022Z,14.20
2022-10-13T07:21:59.044Z,13.68
2022-10-13T07:22:46.226Z,15.10
2022-10-13T07:23:33.221Z,17.55
2022-10-13T07:24:20.099Z,15.90
2022-10-13T07:25:08.082Z,15.75
2022-10-13T07:25:57.082Z,19.45
2022-10-13T07:26:44.061Z,16.02
2022-10-13T07:27:30.964Z,16.12
2022-10-13T07:28:18.484Z,23.55
2022-10-13T07:29:05.339Z,13.52
2022-10-13T07:29:52.041Z,15.60
2022-10-13T07:30:39.951Z,14.32
2022-10-13T07:31:27.192Z,16.58
2022-10-13T07:32:14.061Z,16.05
2022-10-13T07:33:00.850Z,17.90
2022-10-13T07:33:49.627Z,14.63
2022-10-13T07:34:36.416Z,16.12
2022-10-13T07:35:30.246Z,12.68
2022-10-13T07:36:18.534Z,17.12
2022-10-13T07:37:05.286Z,16.50
2022-10-13T07:37:54.876Z,13.90
2022-10-13T07:38:41.664Z,23.35
2022-10-13T07:39:28.381Z,19.62
2022-10-13T07:40:15.229Z,19.98
2022-10-13T07:41:04.102Z,24.37
2022-10-13T07:41:51.463Z,32.42
2022-10-13T07:42:38.399Z,39.58
2022-10-13T07:43:25.381Z,33.70
2022-10-13T07:44:12.451Z,26.98
2022-10-13T07:44:59.446Z,32.47
2022-10-13T07:45:46.886Z,23.52
2022-10-13T07:46:34.084Z,31.25
2022-10-13T07:47:21.415Z,26.60
2022-10-13T07:48:08.919Z,41.42
2022-10-13T07:48:56.278Z,40.25
2022-10-13T07:49:43.240Z,26.98
2022-10-13T07:50:30.133Z,26.98
2022-10-13T07:51:17.151Z,26.35
2022-10-13T07:52:04.321Z,21.73
2022-10-13T07:52:51.283Z,21.83
2022-10-13T07:53:39.032Z,26.62
2022-10-13T07:54:27.461Z,20.73
2022-10-13T07:55:14.766Z,19.55
2022-10-13T07:56:02.803Z,21.67
2022-10-13T07:56:52.961Z,22.50
2022-10-13T07:57:39.812Z,19.20
2022-10-13T07:58:26.611Z,19.37
2022-10-13T07:59:13.941Z,24.73
2022-10-13T08:00:01.740Z,23.08
2022-10-13T08:00:59.572Z,18.58
2022-10-13T08:01:47.363Z,21.45
2022-10-13T08:02:35.074Z,21.80
2022-10-13T08:03:21.912Z,23.08
2022-10-13T08:04:08.931Z,21.33
2022-10-13T08:04:55.820Z,22.73
2022-10-13T08:05:43.127Z,24.02
2022-10-13T08:06:30.139Z,18.25
2022-10-13T08:07:18.261Z,18.12
2022-10-13T08:08:05.710Z,18.60
2022-10-13T08:08:53.212Z,21.92
2022-10-13T08:09:40.182Z,19.67
2022-10-13T08:10:27.961Z,18.02
2022-10-13T08:11:16.796Z,18.70
2022-10-13T08:12:04.840Z,18.75
2022-10-13T08:12:51.891Z,24.05
2022-10-13T08:13:38.882Z,18.05
2022-10-13T08:14:25.922Z,18.27
2022-10-13T08:15:13.133Z,22.70
2022-10-13T08:16:01.685Z,19.58
2022-10-13T08:16:51.410Z,21.02
2022-10-13T08:17:40.564Z,17.00
2022-10-13T08:18:27.482Z,18.42
2022-10-13T08:19:16.165Z,20.02
2022-10-13T08:20:04.713Z,16.60
2022-10-13T08:20:53.192Z,18.55
2022-10-13T08:21:59.539Z,20.10
2022-10-13T08:22:47.151Z,16.92
2022-10-13T08:23:34.000Z,18.92
2022-10-13T08:24:22.775Z,18.87
2022-10-13T08:25:10.309Z,19.85
2022-10-13T08:25:57.622Z,28.30
2022-10-13T08:26:46.555Z,29.42
2022-10-13T08:27:50.145Z,25.15
2022-10-13T08:28:37.934Z,29.45
2022-10-13T08:29:24.917Z,26.80
2022-10-13T08:30:12.424Z,30.10
2022-10-13T08:30:59.416Z,30.12
2022-10-13T08:31:46.679Z,32.67
2022-10-13T08:32:33.872Z,29.58
2022-10-13T08:33:20.832Z,30.10
2022-10-13T08:34:08.131Z,30.75
2022-10-13T08:34:55.411Z,33.38
2022-10-13T08:35:42.824Z,49.83
2022-10-13T08:36:29.842Z,43.85
2022-10-13T08:37:18.661Z,33.35
2022-10-13T08:38:05.941Z,31.83
2022-10-13T08:38:55.480Z,31.62
2022-10-13T08:39:42.670Z,27.02
2022-10-13T08:40:29.562Z,23.80
2022-10-13T08:41:24.611Z,24.90
2022-10-13T08:42:18.768Z,34.33
2022-10-13T08:43:08.071Z,36.47
2022-10-13T08:44:40.940Z,39.13
2022-10-13T08:45:28.847Z,32.15
2022-10-13T08:46:13.809Z,38.33
2022-10-13T08:47:18.901Z,37.72
2022-10-13T08:48:17.732Z,36.95
2022-10-13T08:49:06.691Z,36.03
2022-10-13T08:50:00.646Z,49.88
2022-10-13T08:50:51.421Z,41.53
2022-10-13T08:52:43.151Z,43.58
2022-10-13T08:53:41.041Z,40.83
2022-10-13T08:54:27.944Z,41.37
2022-10-13T08:55:45.225Z,33.10
2022-10-13T08:56:34.821Z,29.35
2022-10-13T08:57:21.956Z,31.33
2022-10-13T08:58:24.524Z,33.60
2022-10-13T08:59:14.461Z,30.27
2022-10-13T09:00:01.520Z,26.70
2022-10-13T09:00:48.565Z,19.12
2022-10-13T09:01:36.807Z,19.33
2022-10-13T09:02:29.502Z,22.67
2022-10-13T09:03:24.921Z,21.42
2022-10-13T09:04:25.231Z,20.42
2022-10-13T09:05:20.221Z,28.35
2022-10-13T09:06:15.544Z,20.48
2022-10-13T09:07:22.398Z,20.77
2022-10-13T09:08:16.110Z,15.88
2022-10-13T09:09:06.714Z,16.35
2022-10-13T09:10:51.805Z,15.18
2022-10-13T09:11:41.351Z,17.73
2022-10-13T09:12:28.345Z,17.08
2022-10-13T09:13:15.319Z,17.02
2022-10-13T09:14:06.131Z,19.37
2022-10-13T09:15:07.571Z,15.00
2022-10-13T09:15:56.562Z,18.62
2022-10-13T09:16:44.859Z,15.55
2022-10-13T09:17:33.619Z,20.27
2022-10-13T09:18:29.194Z,16.33
2022-10-13T09:19:16.050Z,14.18
2022-10-13T09:20:20.861Z,22.00
2022-10-13T09:21:24.321Z,33.78
2022-10-13T09:22:38.021Z,28.77
2022-10-13T09:23:25.861Z,34.63
2022-10-13T09:24:18.622Z,29.37
2022-10-13T09:25:08.951Z,18.90
2022-10-13T09:25:58.620Z,27.13
2022-10-13T09:26:47.463Z,33.42
2022-10-13T09:27:52.163Z,26.70
2022-10-13T09:28:39.185Z,28.85
2022-10-13T09:29:27.192Z,24.55
2022-10-13T09:30:29.263Z,24.67
2022-10-13T09:31:26.571Z,26.05
2022-10-13T09:32:18.426Z,24.77
2022-10-13T09:33:09.186Z,28.83
2022-10-13T09:34:04.050Z,29.45
2022-10-13T09:34:52.283Z,26.83
2022-10-13T09:35:40.329Z,23.80
2022-10-13T09:36:27.925Z,23.75
2022-10-13T09:37:24.261Z,27.90
2022-10-13T09:38:20.452Z,25.17
2022-10-13T09:39:13.252Z,22.55
2022-10-13T09:40:02.775Z,28.02
2022-10-13T09:41:00.363Z,22.52
2022-10-13T09:41:47.470Z,17.87
2022-10-13T09:42:34.542Z,16.20
2022-10-13T09:43:44.732Z,19.55
2022-10-13T09:44:32.320Z,17.62
2022-10-13T09:45:21.691Z,22.13
2022-10-13T09:46:42.510Z,23.87
2022-10-13T09:47:30.924Z,26.35
2022-10-13T09:48:22.310Z,18.70
2022-10-13T09:49:27.350Z,17.55
2022-10-13T09:50:20.382Z,16.70
2022-10-13T09:51:09.587Z,22.60
2022-10-13T09:52:05.823Z,14.68
2022-10-13T09:52:53.181Z,17.02
2022-10-13T09:53:41.140Z,20.00
2022-10-13T09:54:37.241Z,17.75
2022-10-13T09:55:34.344Z,17.35
2022-10-13T09:56:24.671Z,19.75
2022-10-13T09:57:30.213Z,16.60
2022-10-13T09:58:28.880Z,16.85
2022-10-13T09:59:29.283Z,15.13
2022-10-13T10:00:22.232Z,20.15
2022-10-13T10:01:21.111Z,18.55
2022-10-13T10:02:38.122Z,17.42
2022-10-13T10:03:34.732Z,18.67
2022-10-13T10:04:25.314Z,14.20
2022-10-13T10:06:12.863Z,26.30
2022-10-13T10:07:00.433Z,17.65
2022-10-13T10:07:47.772Z,16.52
2022-10-13T10:09:02.104Z,19.20
2022-10-13T10:09:55.534Z,17.95
2022-10-13T10:10:42.962Z,21.10
2022-10-13T10:11:43.171Z,16.40
2022-10-13T10:12:31.962Z,20.95
2022-10-13T10:13:18.951Z,16.58
2022-10-13T10:14:19.887Z,17.10
2022-10-13T10:15:17.891Z,19.10
2022-10-13T10:16:10.060Z,17.75
2022-10-13T10:17:17.991Z,19.58
2022-10-13T10:18:11.971Z,18.62
2022-10-13T10:19:01.582Z,17.95
2022-10-13T10:20:17.481Z,15.83
2022-10-13T10:21:23.101Z,16.15
2022-10-13T10:22:19.671Z,16.42
2022-10-13T10:23:11.842Z,17.33
2022-10-13T10:24:04.232Z,18.90
2022-10-13T10:25:15.891Z,17.85
2022-10-13T10:26:24.976Z,18.90
2022-10-13T10:27:23.513Z,18.35
2022-10-13T10:28:31.791Z,20.58
2022-10-13T10:29:43.592Z,15.82
2022-10-13T10:30:31.964Z,15.48
2022-10-13T10:31:43.945Z,16.48
2022-10-13T10:32:57.872Z,16.35
2022-10-13T10:33:44.693Z,16.52
2022-10-13T10:34:35.408Z,15.20
2022-10-13T10:35:54.535Z,17.17
2022-10-13T10:36:43.264Z,17.48
2022-10-13T10:37:51.852Z,18.08
2022-10-13T10:38:45.870Z,18.20
2022-10-13T10:39:48.081Z,16.48
2022-10-13T10:40:41.152Z,18.40
2022-10-13T10:41:45.771Z,17.52
2022-10-13T10:42:53.944Z,15.90
2022-10-13T10:43:55.591Z,57.70
2022-10-13T10:44:44.300Z,35.17
2022-10-13T10:45:36.271Z,33.22
2022-10-13T10:46:25.397Z,31.45
2022-10-13T10:47:25.758Z,29.25
2022-10-13T10:49:07.452Z,26.92
2022-10-13T10:50:00.236Z,23.65
2022-10-13T10:50:47.563Z,24.55